createdAt,value
2023-03-07T00:01:28.425Z,98389.30
2023-03-07T00:03:57.584Z,98384.60
2023-03-07T00:06:26.304Z,98386.54
2023-03-07T00:08:56.927Z,98380.81
2023-03-07T00:11:29.631Z,98379.86
2023-03-07T00:13:58.087Z,98376.17
2023-03-07T00:16:26.801Z,98373.91
2023-03-07T00:18:55.156Z,98370.88
2023-03-07T00:21:23.635Z,98365.81
2023-03-07T00:23:52.728Z,98366.95
2023-03-07T00:26:22.482Z,98358.95
2023-03-07T00:28:52.380Z,98360.20
2023-03-07T00:31:21.108Z,98358.91
2023-03-07T00:33:51.364Z,98354.71
2023-03-07T00:36:21.841Z,98353.23
2023-03-07T00:38:55.908Z,98350.35
2023-03-07T00:41:26.024Z,98345.61
2023-03-07T00:43:55.441Z,98344.09
2023-03-07T00:46:24.664Z,98340.70
2023-03-07T00:48:53.617Z,98342.90
2023-03-07T00:51:27.740Z,98339.05
2023-03-07T00:53:56.314Z,98338.42
2023-03-07T00:56:25.514Z,98341.40
2023-03-07T00:58:55.018Z,98342.05
2023-03-07T01:01:24.351Z,98334.92
2023-03-07T01:03:53.971Z,98332.17
2023-03-07T01:06:25.443Z,98322.48
2023-03-07T01:08:56.527Z,98320.83
2023-03-07T01:11:27.467Z,98319.82
2023-03-07T01:13:57.403Z,98311.81
2023-03-07T01:16:27.900Z,98311.84
2023-03-07T01:18:58.850Z,98308.00
2023-03-07T01:21:32.859Z,98302.83
2023-03-07T01:24:05.562Z,98298.16
2023-03-07T01:26:35.452Z,98294.33
2023-03-07T01:29:05.022Z,98294.16
2023-03-07T01:31:36.045Z,98296.23
2023-03-07T01:34:07.246Z,98289.52
2023-03-07T01:36:37.634Z,98289.44
2023-03-07T01:39:17.623Z,98283.59
2023-03-07T01:41:53.169Z,98278.27
2023-03-07T01:44:26.212Z,98275.14
2023-03-07T01:47:00.281Z,98278.14
2023-03-07T01:49:53.184Z,98273.54
2023-03-07T01:52:28.515Z,98273.20
2023-03-07T01:55:19.385Z,98270.20
2023-03-07T01:57:51.946Z,98266.36
2023-03-07T02:00:30.258Z,98263.59
2023-03-07T02:03:20.763Z,98264.42
2023-03-07T02:05:54.164Z,98259.15
2023-03-07T02:08:22.959Z,98253.92
2023-03-07T02:10:52.159Z,98252.39
2023-03-07T02:13:20.767Z,98246.44
2023-03-07T02:15:51.388Z,98246.71
2023-03-07T02:18:23.626Z,98243.59
2023-03-07T02:21:12.586Z,98242.45
2023-03-07T02:24:07.895Z,98238.52
2023-03-07T02:26:44.273Z,98239.08
2023-03-07T02:29:14.091Z,98233.66
2023-03-07T02:31:43.070Z,98229.02
2023-03-07T02:34:18.309Z,98234.20
2023-03-07T02:36:47.631Z,98229.80
2023-03-07T02:39:19.578Z,98226.97
2023-03-07T02:41:48.054Z,98226.06
2023-03-07T02:44:24.216Z,98222.41
2023-03-07T02:46:52.701Z,98223.81
2023-03-07T02:49:21.383Z,98224.60
2023-03-07T02:51:57.852Z,98228.02
2023-03-07T02:54:26.949Z,98235.30
2023-03-07T02:56:55.634Z,98236.05
2023-03-07T02:59:24.216Z,98229.14
2023-03-07T03:01:52.732Z,98221.73
2023-03-07T03:04:21.810Z,98216.51
2023-03-07T03:06:50.384Z,98219.92
2023-03-07T03:09:18.767Z,98214.91
2023-03-07T03:11:49.704Z,98216.83
2023-03-07T03:14:18.704Z,98218.36
2023-03-07T03:16:47.076Z,98217.45
2023-03-07T03:19:18.737Z,98218.67
2023-03-07T03:21:48.239Z,98209.51
2023-03-07T03:24:16.721Z,98206.91
2023-03-07T03:26:45.617Z,98207.23
2023-03-07T03:29:15.015Z,98201.65
2023-03-07T03:31:45.133Z,98201.85
2023-03-07T03:34:14.331Z,98205.91
2023-03-07T03:36:42.816Z,98203.95
2023-03-07T03:39:11.295Z,98199.60
2023-03-07T03:41:45.926Z,98201.14
2023-03-07T03:44:17.067Z,98198.42
2023-03-07T03:46:45.520Z,98204.36
2023-03-07T03:49:14.640Z,98203.39
2023-03-07T03:51:45.478Z,98201.32
2023-03-07T03:54:16.111Z,98198.29
2023-03-07T03:56:44.596Z,98194.15
2023-03-07T03:59:13.072Z,98197.46
2023-03-07T04:01:41.505Z,98194.72
2023-03-07T04:04:10.449Z,98196.57
2023-03-07T04:06:39.845Z,98189.06
2023-03-07T04:09:12.565Z,98196.73
2023-03-07T04:11:46.022Z,98195.28
2023-03-07T04:14:14.810Z,98199.57
2023-03-07T04:16:44.694Z,98197.77
2023-03-07T04:19:13.409Z,98193.92
2023-03-07T04:21:44.862Z,98183.35
2023-03-07T04:24:19.489Z,98177.42
2023-03-07T04:26:48.379Z,98174.55
2023-03-07T04:29:17.272Z,98174.27
2023-03-07T04:31:52.657Z,98177.08
2023-03-07T04:34:21.307Z,98172.01
2023-03-07T04:36:49.784Z,98172.48
2023-03-07T04:39:18.374Z,98178.83
2023-03-07T04:41:50.334Z,98183.98
2023-03-07T04:44:21.470Z,98189.26
2023-03-07T04:46:50.161Z,98188.48
2023-03-07T04:50:54.381Z,98189.66
2023-03-07T04:53:26.348Z,98188.98
2023-03-07T04:55:59.128Z,98190.30
2023-03-07T04:58:28.372Z,98188.34
2023-03-07T05:00:57.984Z,98192.17
2023-03-07T05:03:27.851Z,98190.19
2023-03-07T05:05:56.948Z,98191.23
2023-03-07T05:08:26.454Z,98189.56
2023-03-07T05:10:55.956Z,98189.84
2023-03-07T05:13:24.950Z,98193.73
2023-03-07T05:15:55.044Z,98192.97
2023-03-07T05:18:24.378Z,98192.50
2023-03-07T05:20:53.392Z,98193.36
2023-03-07T05:23:22.258Z,98198.27
2023-03-07T05:25:51.873Z,98200.73
2023-03-07T05:28:20.651Z,98194.27
2023-03-07T05:30:49.787Z,98195.61
2023-03-07T05:33:18.331Z,98198.23
2023-03-07T05:35:48.432Z,98196.63
2023-03-07T05:38:17.349Z,98194.33
2023-03-07T05:40:45.656Z,98199.99
2023-03-07T05:43:15.968Z,98193.60
2023-03-07T05:45:44.629Z,98193.52
2023-03-07T05:48:13.214Z,98191.08
2023-03-07T05:50:45.486Z,98191.09
2023-03-07T05:53:13.868Z,98193.52
2023-03-07T05:55:46.155Z,98197.89
2023-03-07T05:58:16.873Z,98195.98
2023-03-07T06:00:47.303Z,98183.16
2023-03-07T06:03:16.091Z,98197.85
2023-03-07T06:05:44.487Z,98196.14
2023-03-07T06:08:15.611Z,98200.55
2023-03-07T06:10:44.816Z,98198.39
2023-03-07T06:13:16.144Z,98199.59
2023-03-07T06:15:44.665Z,98202.67
2023-03-07T06:18:15.273Z,98199.77
2023-03-07T06:20:44.269Z,98197.58
2023-03-07T06:23:13.437Z,98195.98
2023-03-07T06:25:42.463Z,98193.41
2023-03-07T06:28:12.172Z,98190.02
2023-03-07T06:30:41.064Z,98187.98
2023-03-07T06:33:10.164Z,98190.88
2023-03-07T06:35:40.623Z,98189.17
2023-03-07T06:38:09.451Z,98189.95
2023-03-07T06:40:38.066Z,98189.70
2023-03-07T06:43:06.550Z,98190.50
2023-03-07T06:45:35.183Z,98187.02
2023-03-07T06:48:05.232Z,98186.80
2023-03-07T06:50:35.781Z,98185.04
2023-03-07T06:53:05.198Z,98189.61
2023-03-07T06:55:35.004Z,98185.69
2023-03-07T06:58:04.712Z,98188.27
2023-03-07T07:00:33.400Z,98195.23
2023-03-07T07:03:03.214Z,98193.71
2023-03-07T07:05:32.209Z,98192.77
2023-03-07T07:08:00.893Z,98192.89
2023-03-07T07:10:29.887Z,98188.59
2023-03-07T07:12:58.574Z,98195.00
2023-03-07T07:15:32.698Z,98198.42
2023-03-07T07:18:02.915Z,98198.56
2023-03-07T07:20:36.205Z,98195.19
2023-03-07T07:23:05.609Z,98195.64
2023-03-07T07:25:33.989Z,98197.81
2023-03-07T07:28:02.777Z,98198.66
2023-03-07T07:30:31.572Z,98199.48
2023-03-07T07:33:02.832Z,98205.47
2023-03-07T07:35:31.699Z,98206.08
2023-03-07T07:38:01.833Z,98203.32
2023-03-07T07:40:30.724Z,98201.64
2023-03-07T07:42:59.661Z,98199.59
2023-03-07T07:45:35.062Z,98198.07
2023-03-07T07:48:05.738Z,98199.66
2023-03-07T07:50:34.488Z,98198.25
2023-03-07T07:53:04.298Z,98196.80
2023-03-07T07:55:33.191Z,98194.52
2023-03-07T07:58:02.084Z,98203.05
2023-03-07T08:00:31.725Z,98195.42
2023-03-07T08:03:01.406Z,98198.84
2023-03-07T08:05:29.890Z,98193.71
2023-03-07T08:07:59.292Z,98193.23
2023-03-07T08:10:27.679Z,98200.39
2023-03-07T08:12:56.059Z,98198.58
2023-03-07T08:15:24.435Z,98198.05
2023-03-07T08:17:54.760Z,98202.86
2023-03-07T08:20:29.601Z,98199.61
2023-03-07T08:22:58.183Z,98202.00
2023-03-07T08:25:26.559Z,98198.75
2023-03-07T08:27:56.171Z,98200.81
2023-03-07T08:30:26.751Z,98200.37
2023-03-07T08:32:57.026Z,98198.90
2023-03-07T08:35:26.584Z,98196.56
2023-03-07T08:37:56.619Z,98201.63
2023-03-07T08:40:26.369Z,98203.89
2023-03-07T08:42:55.485Z,98197.91
2023-03-07T08:45:25.296Z,98197.82
2023-03-07T08:47:55.001Z,98200.36
2023-03-07T08:50:25.957Z,98199.03
2023-03-07T08:52:55.443Z,98202.42
2023-03-07T08:55:23.736Z,98214.83
2023-03-07T08:57:52.302Z,98219.56
2023-03-07T09:00:21.700Z,98223.85
2023-03-07T09:02:50.081Z,98229.29
2023-03-07T09:05:18.670Z,98224.29
2023-03-07T09:07:47.045Z,98224.03
2023-03-07T09:10:19.419Z,98225.61
2023-03-07T09:12:49.149Z,98224.13
2023-03-07T09:15:18.364Z,98224.92
2023-03-07T09:17:46.917Z,98220.46
2023-03-07T09:20:18.986Z,98223.19
2023-03-07T09:22:47.894Z,98217.45
2023-03-07T09:25:16.578Z,98219.70
2023-03-07T09:27:45.928Z,98217.11
2023-03-07T09:30:15.124Z,98213.65
2023-03-07T09:32:43.567Z,98208.42
2023-03-07T09:35:13.083Z,98209.14
2023-03-07T09:37:41.674Z,98215.83
2023-03-07T09:40:16.787Z,98211.65
2023-03-07T09:43:09.664Z,98216.56
2023-03-07T09:45:53.587Z,98217.27
2023-03-07T09:49:05.696Z,98211.85
2023-03-07T09:51:38.891Z,98219.27
2023-03-07T09:54:35.952Z,98221.45
2023-03-07T09:57:05.656Z,98224.27
2023-03-07T09:59:41.417Z,98226.46
2023-03-07T10:02:36.831Z,98221.70
2023-03-07T10:05:31.718Z,98221.23
2023-03-07T10:08:02.376Z,98211.92
2023-03-07T10:11:04.022Z,98214.31
2023-03-07T10:13:58.757Z,98207.30
2023-03-07T10:16:31.793Z,98205.74
2023-03-07T10:19:09.714Z,98206.63
2023-03-07T10:21:42.090Z,98201.54
2023-03-07T10:24:37.505Z,98197.48
2023-03-07T10:27:07.575Z,98195.48
2023-03-07T10:29:47.037Z,98195.86
2023-03-07T10:32:26.017Z,98195.77
2023-03-07T10:35:21.311Z,98190.21
2023-03-07T10:38:35.756Z,98189.85
2023-03-07T10:41:12.132Z,98184.67
2023-03-07T10:43:40.916Z,98181.80
2023-03-07T10:46:24.670Z,98177.05
2023-03-07T10:49:10.493Z,98180.85
2023-03-07T10:52:01.565Z,98182.94
2023-03-07T10:54:32.288Z,98171.73
2023-03-07T10:57:11.244Z,98176.77
2023-03-07T10:59:48.706Z,98175.80
2023-03-07T11:02:36.352Z,98175.05
2023-03-07T11:05:31.449Z,98171.27
2023-03-07T11:08:00.854Z,98177.52
2023-03-07T11:10:40.371Z,98182.81
2023-03-07T11:13:18.209Z,98174.79
2023-03-07T11:15:47.049Z,98174.95
2023-03-07T11:18:44.855Z,98170.02
2023-03-07T11:21:31.489Z,98173.22
2023-03-07T11:24:17.133Z,98174.44
2023-03-07T11:26:45.941Z,98175.31
2023-03-07T11:29:15.037Z,98175.02
2023-03-07T11:32:00.106Z,98169.05
2023-03-07T11:34:53.985Z,98174.26
2023-03-07T11:37:26.976Z,98171.27
2023-03-07T11:40:31.916Z,98165.83
2023-03-07T11:43:11.665Z,98171.84
2023-03-07T11:45:56.323Z,98169.73
2023-03-07T11:48:29.314Z,98167.55
2023-03-07T11:50:57.804Z,98171.70
2023-03-07T11:53:41.227Z,98174.57
2023-03-07T11:56:15.548Z,98175.64
2023-03-07T11:59:10.466Z,98175.48
2023-03-07T12:01:57.379Z,98176.30
2023-03-07T12:04:41.431Z,98172.79
2023-03-07T12:07:11.040Z,98171.37
2023-03-07T12:09:52.621Z,98172.85
2023-03-07T12:12:43.116Z,98165.66
2023-03-07T12:15:23.802Z,98169.36
2023-03-07T12:18:25.140Z,98178.86
2023-03-07T12:21:13.186Z,98179.12
2023-03-07T12:23:42.591Z,98180.51
2023-03-07T12:26:21.408Z,98188.36
2023-03-07T12:28:59.212Z,98186.45
2023-03-07T12:31:32.618Z,98188.29
2023-03-07T12:34:12.064Z,98188.61
2023-03-07T12:36:45.341Z,98193.02
2023-03-07T12:39:48.643Z,98190.87
2023-03-07T12:42:35.757Z,98193.98
2023-03-07T12:45:33.221Z,98196.69
2023-03-07T12:48:05.699Z,98197.95
2023-03-07T12:50:54.619Z,98201.53
2023-03-07T12:53:33.586Z,98203.35
2023-03-07T12:56:03.608Z,98204.60
2023-03-07T12:58:46.955Z,98210.50
2023-03-07T13:01:22.042Z,98209.62
2023-03-07T13:04:25.192Z,98209.58
2023-03-07T13:06:53.544Z,98208.07
2023-03-07T13:09:24.186Z,98209.60
2023-03-07T13:12:17.284Z,98212.80
2023-03-07T13:14:46.348Z,98207.58
2023-03-07T13:17:31.198Z,98211.52
2023-03-07T13:20:22.411Z,98210.71
2023-03-07T13:22:54.370Z,98209.09
2023-03-07T13:25:23.017Z,98208.52
2023-03-07T13:27:58.183Z,98210.23
2023-03-07T13:30:33.282Z,98201.44
2023-03-07T13:33:07.250Z,98207.80
2023-03-07T13:35:38.689Z,98209.63
2023-03-07T13:38:10.974Z,98210.64
2023-03-07T13:40:45.389Z,98214.20
2023-03-07T13:43:20.521Z,98211.02
2023-03-07T13:46:08.517Z,98213.73
2023-03-07T13:48:40.123Z,98212.84
2023-03-07T13:51:09.543Z,98216.70
2023-03-07T13:53:51.237Z,98219.47
2023-03-07T13:56:27.594Z,98221.45
2023-03-07T13:59:14.411Z,98223.27
2023-03-07T14:02:04.800Z,98226.30
2023-03-07T14:04:54.671Z,98225.98
2023-03-07T14:07:40.676Z,98221.50
2023-03-07T14:10:23.667Z,98222.08
2023-03-07T14:13:24.878Z,98225.98
2023-03-07T14:15:57.284Z,98223.80
2023-03-07T14:18:50.703Z,98225.96
2023-03-07T14:21:49.393Z,98224.13
2023-03-07T14:24:39.786Z,98226.92
2023-03-07T14:27:14.410Z,98228.94
2023-03-07T14:29:52.101Z,98231.30
2023-03-07T14:32:28.345Z,98230.95
2023-03-07T14:34:56.965Z,98228.05
2023-03-07T14:37:29.783Z,98226.86
2023-03-07T14:39:58.450Z,98226.73
2023-03-07T14:42:35.595Z,98227.27
2023-03-07T14:45:29.707Z,98224.80
2023-03-07T14:48:12.040Z,98227.02
2023-03-07T14:50:44.197Z,98229.39
2023-03-07T14:53:17.065Z,98233.54
2023-03-07T14:55:46.968Z,98230.98
2023-03-07T14:58:23.966Z,98231.77
2023-03-07T15:01:05.652Z,98231.83
2023-03-07T15:03:34.845Z,98231.33
2023-03-07T15:06:13.773Z,98233.05
2023-03-07T15:08:42.254Z,98232.80
2023-03-07T15:11:22.923Z,98229.26
2023-03-07T15:13:54.076Z,98230.73
2023-03-07T15:16:39.481Z,98235.27
2023-03-07T15:19:12.435Z,98236.00
2023-03-07T15:21:44.209Z,98236.47
2023-03-07T15:24:29.885Z,98235.63
2023-03-07T15:26:59.707Z,98240.59
2023-03-07T15:29:31.563Z,98241.66
2023-03-07T15:32:04.007Z,98245.74
2023-03-07T15:34:37.345Z,98232.94
2023-03-07T15:37:25.378Z,98243.48
2023-03-07T15:40:09.033Z,98243.84
2023-03-07T15:42:52.272Z,98242.95
2023-03-07T15:45:34.906Z,98241.34
2023-03-07T15:48:22.187Z,98242.48
2023-03-07T15:50:57.122Z,98244.93
2023-03-07T15:53:37.739Z,98247.41
2023-03-07T15:56:08.235Z,98252.48
2023-03-07T15:58:36.911Z,98254.52
2023-03-07T16:01:19.627Z,98254.41
2023-03-07T16:03:52.844Z,98251.52
2023-03-07T16:06:37.890Z,98255.90
2023-03-07T16:09:14.370Z,98253.68
2023-03-07T16:11:42.841Z,98257.95
2023-03-07T16:14:21.693Z,98261.79
2023-03-07T16:16:50.132Z,98257.20
2023-03-07T16:19:18.529Z,98260.41
2023-03-07T16:21:47.218Z,98260.17
2023-03-07T16:24:15.643Z,98261.52
2023-03-07T16:26:44.284Z,98261.85
2023-03-07T16:29:20.650Z,98269.08
2023-03-07T16:31:49.103Z,98270.04
2023-03-07T16:34:19.279Z,98264.05
2023-03-07T16:36:48.368Z,98278.13
2023-03-07T16:39:18.268Z,98281.88
2023-03-07T16:41:48.117Z,98285.34
2023-03-07T16:44:17.677Z,98284.68
2023-03-07T16:46:51.194Z,98281.88
2023-03-07T16:49:19.570Z,98285.61
2023-03-07T16:52:03.057Z,98288.24
2023-03-07T16:54:34.459Z,98286.61
2023-03-07T16:57:07.349Z,98290.70
2023-03-07T16:59:36.081Z,98294.64
2023-03-07T17:02:21.381Z,98292.60
2023-03-07T17:04:51.122Z,98290.36
2023-03-07T17:08:33.955Z,98293.05
2023-03-07T17:11:25.679Z,98291.89
2023-03-07T17:13:55.218Z,98287.73
2023-03-07T17:16:23.775Z,98286.85
2023-03-07T17:18:52.155Z,98284.77
2023-03-07T17:21:21.694Z,98283.77
2023-03-07T17:23:50.341Z,98282.03
2023-03-07T17:26:20.074Z,98280.39
2023-03-07T17:28:49.569Z,98282.88
2023-03-07T17:31:18.150Z,98285.73
2023-03-07T17:33:49.107Z,98284.65
2023-03-07T17:36:17.580Z,98288.22
2023-03-07T17:38:47.195Z,98282.40
2023-03-07T17:41:15.620Z,98268.65
2023-03-07T17:43:46.922Z,98280.66
2023-03-07T17:46:15.735Z,98273.24
2023-03-07T17:48:45.321Z,98280.38
2023-03-07T17:51:16.266Z,98284.71
2023-03-07T17:53:44.947Z,98288.30
2023-03-07T17:56:16.708Z,98289.41
2023-03-07T17:58:45.710Z,98285.55
2023-03-07T18:01:15.939Z,98283.79
2023-03-07T18:03:44.624Z,98280.03
2023-03-07T18:06:13.611Z,98284.14
2023-03-07T18:08:42.510Z,98289.43
2023-03-07T18:11:13.855Z,98290.10
2023-03-07T18:13:42.753Z,98289.37
2023-03-07T18:16:11.264Z,98295.20
2023-03-07T18:18:50.544Z,98292.75
2023-03-07T18:21:26.837Z,98296.03
2023-03-07T18:23:55.528Z,98294.18
2023-03-07T18:26:24.219Z,98296.07
2023-03-07T18:28:56.597Z,98290.73
2023-03-07T18:31:28.888Z,98290.26
2023-03-07T18:34:01.127Z,98289.98
2023-03-07T18:36:30.016Z,98292.20
2023-03-07T18:38:59.350Z,98292.23
2023-03-07T18:41:27.798Z,98291.86
2023-03-07T18:43:56.898Z,98293.15
2023-03-07T18:46:27.154Z,98294.64
2023-03-07T18:48:56.832Z,98295.74
2023-03-07T18:51:27.192Z,98297.39
2023-03-07T18:53:59.534Z,98299.35
2023-03-07T18:56:28.533Z,98298.21
2023-03-07T18:58:59.201Z,98297.45
2023-03-07T19:01:32.258Z,98300.62
2023-03-07T19:04:03.310Z,98305.86
2023-03-07T19:06:36.125Z,98308.22
2023-03-07T19:09:04.563Z,98312.00
2023-03-07T19:11:36.249Z,98310.69
2023-03-07T19:14:05.220Z,98309.27
2023-03-07T19:16:33.958Z,98308.58
2023-03-07T19:19:06.183Z,98305.69
2023-03-07T19:21:35.895Z,98309.31
2023-03-07T19:24:06.010Z,98304.71
2023-03-07T19:26:34.494Z,98305.91
2023-03-07T19:29:04.477Z,98302.98
2023-03-07T19:31:33.452Z,98303.85
2023-03-07T19:34:03.230Z,98301.29
2023-03-07T19:36:34.166Z,98306.78
2023-03-07T19:39:02.950Z,98307.48
2023-03-07T19:41:32.155Z,98307.15
2023-03-07T19:44:01.038Z,98310.05
2023-03-07T19:46:30.547Z,98316.31
2023-03-07T19:49:00.873Z,98311.17
2023-03-07T19:51:29.767Z,98307.60
2023-03-07T19:53:58.263Z,98304.95
2023-03-07T19:56:29.613Z,98307.44
2023-03-07T19:58:59.342Z,98303.89
2023-03-07T20:01:29.130Z,98303.52
2023-03-07T20:03:57.812Z,98298.90
2023-03-07T20:06:29.738Z,98299.71
2023-03-07T20:08:59.595Z,98298.71
2023-03-07T20:11:30.631Z,98296.16
2023-03-07T20:14:01.919Z,98291.53
2023-03-07T20:16:31.488Z,98291.87
2023-03-07T20:19:01.791Z,98291.17
2023-03-07T20:21:36.758Z,98288.71
2023-03-07T20:24:07.053Z,98284.56
2023-03-07T20:26:37.229Z,98282.33
2023-03-07T20:29:06.550Z,98286.85
2023-03-07T20:31:36.555Z,98283.69
2023-03-07T20:34:06.009Z,98278.82
2023-03-07T20:36:36.868Z,98278.20
2023-03-07T20:39:08.136Z,98273.83
2023-03-07T20:41:42.837Z,98267.14
2023-03-07T20:44:12.661Z,98270.55
2023-03-07T20:46:41.613Z,98268.62
2023-03-07T20:49:11.910Z,98270.64
2023-03-07T20:51:41.069Z,98272.30
2023-03-07T20:54:13.861Z,98268.98
2023-03-07T20:56:42.648Z,98265.52
2023-03-07T20:59:18.830Z,98268.22
2023-03-07T21:01:47.484Z,98264.50
2023-03-07T21:04:18.033Z,98267.18
2023-03-07T21:06:47.635Z,98264.70
2023-03-07T21:09:17.059Z,98261.91
2023-03-07T21:11:47.778Z,98256.38
2023-03-07T21:14:17.184Z,98263.15
2023-03-07T21:16:46.380Z,98266.43
2023-03-07T21:19:14.890Z,98262.28
2023-03-07T21:21:43.243Z,98263.30
2023-03-07T21:24:12.669Z,98267.08
2023-03-07T21:26:43.598Z,98267.94
2023-03-07T21:29:14.128Z,98266.50
2023-03-07T21:31:43.175Z,98268.21
2023-03-07T21:34:13.831Z,98266.39
2023-03-07T21:36:42.840Z,98273.39
2023-03-07T21:39:14.594Z,98270.39
2023-03-07T21:41:43.485Z,98271.23
2023-03-07T21:44:12.583Z,98274.32
2023-03-07T21:46:42.906Z,98272.81
2023-03-07T21:49:13.857Z,98275.77
2023-03-07T21:51:43.157Z,98276.23
2023-03-07T21:54:11.630Z,98276.30
2023-03-07T21:56:40.535Z,98275.59
2023-03-07T21:59:09.310Z,98283.55
2023-03-07T22:01:37.695Z,98280.75
2023-03-07T22:04:06.399Z,98275.20
2023-03-07T22:06:34.708Z,98272.41
2023-03-07T22:09:06.005Z,98273.89
2023-03-07T22:11:34.711Z,98272.54
2023-03-07T22:14:04.607Z,98272.85
2023-03-07T22:16:36.719Z,98268.98
2023-03-07T22:19:05.155Z,98264.61
2023-03-07T22:21:34.052Z,98265.42
2023-03-07T22:24:06.019Z,98267.95
2023-03-07T22:26:34.607Z,98268.63
2023-03-07T22:29:03.794Z,98259.89
2023-03-07T22:31:33.937Z,98258.05
2023-03-07T22:34:03.421Z,98254.31
2023-03-07T22:36:32.212Z,98253.91
2023-03-07T22:39:00.595Z,98255.42
2023-03-07T22:41:29.385Z,98256.32
2023-03-07T22:43:58.374Z,98248.23
2023-03-07T22:46:26.823Z,98248.41
2023-03-07T22:48:56.672Z,98243.88
2023-03-07T22:51:26.082Z,98247.33
2023-03-07T22:53:55.111Z,98247.05
2023-03-07T22:56:26.216Z,98246.27
2023-03-07T22:58:59.194Z,98238.23
2023-03-07T23:01:28.811Z,98235.73
2023-03-07T23:03:58.164Z,98232.89
2023-03-07T23:06:30.378Z,98229.05
2023-03-07T23:08:59.989Z,98224.77
2023-03-07T23:11:33.102Z,98224.21
2023-03-07T23:14:01.966Z,98222.36
2023-03-07T23:16:31.892Z,98222.56
2023-03-07T23:19:03.644Z,98220.55
2023-03-07T23:21:32.656Z,98222.27
2023-03-07T23:24:06.236Z,98224.42
2023-03-07T23:26:37.070Z,98218.83
2023-03-07T23:29:07.128Z,98216.50
2023-03-07T23:31:38.391Z,98214.70
2023-03-07T23:34:09.484Z,98210.29
2023-03-07T23:36:42.885Z,98210.20
2023-03-07T23:39:12.595Z,98208.88
2023-03-07T23:41:41.078Z,98213.51
2023-03-07T23:44:10.066Z,98218.65
2023-03-07T23:46:38.956Z,98216.73
2023-03-07T23:49:10.207Z,98215.00
2023-03-07T23:51:38.898Z,98207.45
2023-03-07T23:54:09.429Z,98199.58
2023-03-07T23:56:38.131Z,98197.52
2023-03-07T23:59:06.585Z,98186.45
